sensor_id;sensor_type;location;lat;lon;timestamp;P1;durP1;ratioP1;P2;durP2;ratioP2
25319;SDS011;13256;49.012;8.610;2022-07-10T00:02:13;4.50;;;3.05;;
25319;SDS011;13256;49.012;8.610;2022-07-10T00:04:40;5.90;;;3.28;;
25319;SDS011;13256;49.012;8.610;2022-07-10T00:07:07;3.83;;;3.40;;
25319;SDS011;13256;49.012;8.610;2022-07-10T00:09:34;5.30;;;3.35;;
25319;SDS011;13256;49.012;8.610;2022-07-10T00:12:01;5.50;;;3.30;;
25319;SDS011;13256;49.012;8.610;2022-07-10T00:14:28;3.53;;;3.22;;
25319;SDS011;13256;49.012;8.610;2022-07-10T00:16:57;3.83;;;3.00;;
25319;SDS011;13256;49.012;8.610;2022-07-10T00:19:26;3.40;;;3.00;;
25319;SDS011;13256;49.012;8.610;2022-07-10T00:21:58;4.50;;;3.40;;
25319;SDS011;13256;49.012;8.610;2022-07-10T00:24:25;3.75;;;3.35;;
25319;SDS011;13256;49.012;8.610;2022-07-10T00:26:54;6.18;;;3.22;;
25319;SDS011;13256;49.012;8.610;2022-07-10T00:29:23;4.68;;;3.40;;
25319;SDS011;13256;49.012;8.610;2022-07-10T00:31:50;3.58;;;2.92;;
25319;SDS011;13256;49.012;8.610;2022-07-10T00:34:19;5.28;;;3.65;;
25319;SDS011;13256;49.012;8.610;2022-07-10T00:36:49;4.90;;;3.20;;
25319;SDS011;13256;49.012;8.610;2022-07-10T00:39:18;6.68;;;3.10;;
25319;SDS011;13256;49.012;8.610;2022-07-10T00:42:10;4.07;;;3.22;;
25319;SDS011;13256;49.012;8.610;2022-07-10T00:44:45;3.92;;;3.30;;
25319;SDS011;13256;49.012;8.610;2022-07-10T00:47:12;4.90;;;3.08;;
25319;SDS011;13256;49.012;8.610;2022-07-10T00:49:40;5.55;;;3.35;;
25319;SDS011;13256;49.012;8.610;2022-07-10T00:52:13;3.80;;;3.25;;
25319;SDS011;13256;49.012;8.610;2022-07-10T00:54:47;5.20;;;3.33;;
25319;SDS011;13256;49.012;8.610;2022-07-10T00:57:18;3.78;;;3.25;;
25319;SDS011;13256;49.012;8.610;2022-07-10T01:00:04;4.97;;;3.28;;
25319;SDS011;13256;49.012;8.610;2022-07-10T01:02:34;6.30;;;3.40;;
25319;SDS011;13256;49.012;8.610;2022-07-10T01:05:07;3.47;;;3.17;;
25319;SDS011;13256;49.012;8.610;2022-07-10T01:07:34;7.63;;;4.15;;
25319;SDS011;13256;49.012;8.610;2022-07-10T01:10:03;8.60;;;4.25;;
25319;SDS011;13256;49.012;8.610;2022-07-10T01:12:30;6.93;;;4.53;;
25319;SDS011;13256;49.012;8.610;2022-07-10T01:14:58;7.22;;;5.40;;
25319;SDS011;13256;49.012;8.610;2022-07-10T01:17:25;5.75;;;5.10;;
25319;SDS011;13256;49.012;8.610;2022-07-10T01:19:52;5.07;;;4.60;;
25319;SDS011;13256;49.012;8.610;2022-07-10T01:22:18;7.97;;;4.88;;
25319;SDS011;13256;49.012;8.610;2022-07-10T01:24:45;8.05;;;5.60;;
25319;SDS011;13256;49.012;8.610;2022-07-10T01:30:09;7.32;;;5.40;;
25319;SDS011;13256;49.012;8.610;2022-07-10T01:32:36;7.90;;;5.25;;
25319;SDS011;13256;49.012;8.610;2022-07-10T01:35:06;10.70;;;5.90;;
25319;SDS011;13256;49.012;8.610;2022-07-10T01:40:26;7.32;;;5.55;;
25319;SDS011;13256;49.012;8.610;2022-07-10T01:42:58;7.45;;;4.75;;
25319;SDS011;13256;49.012;8.610;2022-07-10T01:45:38;6.07;;;4.50;;
25319;SDS011;13256;49.012;8.610;2022-07-10T01:48:05;9.13;;;4.70;;
25319;SDS011;13256;49.012;8.610;2022-07-10T01:50:32;6.40;;;4.50;;
25319;SDS011;13256;49.012;8.610;2022-07-10T01:53:03;9.55;;;5.20;;
25319;SDS011;13256;49.012;8.610;2022-07-10T01:55:32;7.68;;;4.97;;
25319;SDS011;13256;49.012;8.610;2022-07-10T01:57:59;7.75;;;5.00;;
25319;SDS011;13256;49.012;8.610;2022-07-10T02:00:28;9.15;;;5.35;;
25319;SDS011;13256;49.012;8.610;2022-07-10T02:02:58;10.07;;;5.47;;
25319;SDS011;13256;49.012;8.610;2022-07-10T02:05:43;6.60;;;4.75;;
25319;SDS011;13256;49.012;8.610;2022-07-10T02:08:11;9.68;;;5.43;;
25319;SDS011;13256;49.012;8.610;2022-07-10T02:10:45;9.27;;;5.25;;
25319;SDS011;13256;49.012;8.610;2022-07-10T02:13:12;8.10;;;5.40;;
25319;SDS011;13256;49.012;8.610;2022-07-10T02:15:43;6.43;;;5.00;;
25319;SDS011;13256;49.012;8.610;2022-07-10T02:18:12;6.10;;;5.15;;
25319;SDS011;13256;49.012;8.610;2022-07-10T02:20:41;6.57;;;4.88;;
25319;SDS011;13256;49.012;8.610;2022-07-10T02:23:10;7.10;;;5.68;;
25319;SDS011;13256;49.012;8.610;2022-07-10T02:25:42;6.78;;;4.90;;
25319;SDS011;13256;49.012;8.610;2022-07-10T02:28:10;5.82;;;4.90;;
25319;SDS011;13256;49.012;8.610;2022-07-10T02:30:37;7.88;;;5.70;;
25319;SDS011;13256;49.012;8.610;2022-07-10T02:33:05;6.85;;;5.68;;
25319;SDS011;13256;49.012;8.610;2022-07-10T02:35:33;6.00;;;4.72;;
25319;SDS011;13256;49.012;8.610;2022-07-10T02:38:00;8.93;;;5.05;;
25319;SDS011;13256;49.012;8.610;2022-07-10T02:40:27;6.80;;;4.75;;
25319;SDS011;13256;49.012;8.610;2022-07-10T02:42:54;8.35;;;4.82;;
25319;SDS011;13256;49.012;8.610;2022-07-10T02:45:32;5.90;;;4.75;;
25319;SDS011;13256;49.012;8.610;2022-07-10T02:48:05;7.68;;;4.40;;
25319;SDS011;13256;49.012;8.610;2022-07-10T02:50:32;7.80;;;4.60;;
25319;SDS011;13256;49.012;8.610;2022-07-10T02:53:02;6.68;;;4.40;;
25319;SDS011;13256;49.012;8.610;2022-07-10T02:55:29;8.70;;;4.22;;
25319;SDS011;13256;49.012;8.610;2022-07-10T02:57:58;5.75;;;3.97;;
25319;SDS011;13256;49.012;8.610;2022-07-10T03:00:30;6.80;;;4.13;;
25319;SDS011;13256;49.012;8.610;2022-07-10T03:02:57;8.25;;;4.32;;
25319;SDS011;13256;49.012;8.610;2022-07-10T03:11:32;10.00;;;4.43;;
25319;SDS011;13256;49.012;8.610;2022-07-10T03:14:07;7.20;;;4.57;;
25319;SDS011;13256;49.012;8.610;2022-07-10T03:16:34;7.38;;;3.50;;
25319;SDS011;13256;49.012;8.610;2022-07-10T03:19:00;5.72;;;3.67;;
25319;SDS011;13256;49.012;8.610;2022-07-10T03:21:30;5.05;;;3.55;;
25319;SDS011;13256;49.012;8.610;2022-07-10T03:24:00;7.18;;;3.60;;
25319;SDS011;13256;49.012;8.610;2022-07-10T03:26:27;6.22;;;3.40;;
25319;SDS011;13256;49.012;8.610;2022-07-10T03:28:58;5.55;;;3.42;;
25319;SDS011;13256;49.012;8.610;2022-07-10T03:31:27;5.32;;;3.65;;
25319;SDS011;13256;49.012;8.610;2022-07-10T03:33:54;7.40;;;3.47;;
25319;SDS011;13256;49.012;8.610;2022-07-10T03:36:23;6.28;;;3.40;;
25319;SDS011;13256;49.012;8.610;2022-07-10T03:38:49;7.45;;;3.78;;
25319;SDS011;13256;49.012;8.610;2022-07-10T03:41:19;5.40;;;3.60;;
25319;SDS011;13256;49.012;8.610;2022-07-10T03:43:47;6.22;;;3.17;;
25319;SDS011;13256;49.012;8.610;2022-07-10T03:46:18;8.73;;;3.07;;
25319;SDS011;13256;49.012;8.610;2022-07-10T03:48:45;9.13;;;3.70;;
25319;SDS011;13256;49.012;8.610;2022-07-10T03:51:13;4.47;;;3.10;;
25319;SDS011;13256;49.012;8.610;2022-07-10T03:53:42;8.02;;;3.58;;
25319;SDS011;13256;49.012;8.610;2022-07-10T03:56:12;12.07;;;3.80;;
25319;SDS011;13256;49.012;8.610;2022-07-10T03:59:00;10.50;;;3.20;;
25319;SDS011;13256;49.012;8.610;2022-07-10T04:01:30;4.13;;;2.55;;
25319;SDS011;13256;49.012;8.610;2022-07-10T04:04:00;14.52;;;3.58;;
25319;SDS011;13256;49.012;8.610;2022-07-10T04:06:27;6.60;;;3.10;;
25319;SDS011;13256;49.012;8.610;2022-07-10T04:08:59;4.65;;;2.70;;
25319;SDS011;13256;49.012;8.610;2022-07-10T04:11:25;7.43;;;2.92;;
25319;SDS011;13256;49.012;8.610;2022-07-10T04:13:53;6.05;;;2.80;;
25319;SDS011;13256;49.012;8.610;2022-07-10T04:16:20;8.85;;;3.03;;
25319;SDS011;13256;49.012;8.610;2022-07-10T04:18:51;7.22;;;2.65;;
25319;SDS011;13256;49.012;8.610;2022-07-10T04:21:23;4.90;;;3.03;;
25319;SDS011;13256;49.012;8.610;2022-07-10T04:23:54;3.85;;;2.45;;
25319;SDS011;13256;49.012;8.610;2022-07-10T04:26:33;8.93;;;2.70;;
25319;SDS011;13256;49.012;8.610;2022-07-10T04:29:00;5.85;;;2.75;;
25319;SDS011;13256;49.012;8.610;2022-07-10T04:31:27;4.00;;;2.30;;
25319;SDS011;13256;49.012;8.610;2022-07-10T04:33:54;5.88;;;2.80;;
25319;SDS011;13256;49.012;8.610;2022-07-10T04:39:08;10.68;;;2.70;;
25319;SDS011;13256;49.012;8.610;2022-07-10T04:41:37;6.70;;;2.42;;
25319;SDS011;13256;49.012;8.610;2022-07-10T04:44:04;4.65;;;2.40;;
25319;SDS011;13256;49.012;8.610;2022-07-10T04:46:35;13.15;;;2.70;;
25319;SDS011;13256;49.012;8.610;2022-07-10T04:49:03;9.55;;;2.60;;
25319;SDS011;13256;49.012;8.610;2022-07-10T04:51:31;3.20;;;2.17;;
25319;SDS011;13256;49.012;8.610;2022-07-10T04:53:58;8.98;;;2.35;;
25319;SDS011;13256;49.012;8.610;2022-07-10T04:56:33;6.72;;;1.98;;
25319;SDS011;13256;49.012;8.610;2022-07-10T04:59:07;5.72;;;2.40;;
25319;SDS011;13256;49.012;8.610;2022-07-10T05:01:36;7.55;;;2.80;;
25319;SDS011;13256;49.012;8.610;2022-07-10T05:04:04;4.72;;;1.88;;
25319;SDS011;13256;49.012;8.610;2022-07-10T05:06:33;5.38;;;2.42;;
25319;SDS011;13256;49.012;8.610;2022-07-10T05:09:00;7.85;;;1.98;;
25319;SDS011;13256;49.012;8.610;2022-07-10T05:14:02;4.72;;;1.92;;
25319;SDS011;13256;49.012;8.610;2022-07-10T05:16:28;4.90;;;2.30;;
25319;SDS011;13256;49.012;8.610;2022-07-10T05:18:56;12.68;;;1.98;;
25319;SDS011;13256;49.012;8.610;2022-07-10T05:21:23;3.90;;;1.70;;
25319;SDS011;13256;49.012;8.610;2022-07-10T05:23:51;6.22;;;1.90;;
25319;SDS011;13256;49.012;8.610;2022-07-10T05:26:21;6.57;;;2.00;;
25319;SDS011;13256;49.012;8.610;2022-07-10T05:29:38;7.13;;;2.20;;
25319;SDS011;13256;49.012;8.610;2022-07-10T05:32:07;6.40;;;2.13;;
25319;SDS011;13256;49.012;8.610;2022-07-10T05:34:37;6.60;;;1.83;;
25319;SDS011;13256;49.012;8.610;2022-07-10T05:37:11;5.95;;;1.70;;
25319;SDS011;13256;49.012;8.610;2022-07-10T05:39:38;4.53;;;1.83;;
25319;SDS011;13256;49.012;8.610;2022-07-10T05:42:05;8.15;;;1.92;;
25319;SDS011;13256;49.012;8.610;2022-07-10T05:44:37;7.75;;;1.80;;
25319;SDS011;13256;49.012;8.610;2022-07-10T05:47:04;6.18;;;2.00;;
25319;SDS011;13256;49.012;8.610;2022-07-10T05:49:56;6.53;;;1.85;;
25319;SDS011;13256;49.012;8.610;2022-07-10T05:52:22;5.72;;;1.75;;
25319;SDS011;13256;49.012;8.610;2022-07-10T05:54:49;6.05;;;2.10;;
25319;SDS011;13256;49.012;8.610;2022-07-10T05:57:19;6.38;;;1.80;;
25319;SDS011;13256;49.012;8.610;2022-07-10T05:59:46;6.00;;;1.63;;
25319;SDS011;13256;49.012;8.610;2022-07-10T06:02:14;5.32;;;1.52;;
25319;SDS011;13256;49.012;8.610;2022-07-10T06:08:13;4.30;;;1.70;;
25319;SDS011;13256;49.012;8.610;2022-07-10T06:10:40;7.03;;;1.65;;
25319;SDS011;13256;49.012;8.610;2022-07-10T06:13:10;8.68;;;1.70;;
25319;SDS011;13256;49.012;8.610;2022-07-10T06:15:37;9.27;;;1.95;;
25319;SDS011;13256;49.012;8.610;2022-07-10T06:18:05;4.45;;;1.63;;
25319;SDS011;13256;49.012;8.610;2022-07-10T06:20:40;5.60;;;1.60;;
25319;SDS011;13256;49.012;8.610;2022-07-10T06:23:12;4.65;;;2.00;;
25319;SDS011;13256;49.012;8.610;2022-07-10T06:25:38;4.93;;;1.75;;
25319;SDS011;13256;49.012;8.610;2022-07-10T06:28:05;4.18;;;1.35;;
25319;SDS011;13256;49.012;8.610;2022-07-10T06:30:32;4.60;;;1.60;;
25319;SDS011;13256;49.012;8.610;2022-07-10T06:33:01;6.57;;;1.60;;
25319;SDS011;13256;49.012;8.610;2022-07-10T06:35:28;3.33;;;1.65;;
25319;SDS011;13256;49.012;8.610;2022-07-10T06:37:54;3.25;;;1.65;;
25319;SDS011;13256;49.012;8.610;2022-07-10T06:40:21;5.45;;;1.67;;
25319;SDS011;13256;49.012;8.610;2022-07-10T06:42:49;6.22;;;1.80;;
25319;SDS011;13256;49.012;8.610;2022-07-10T06:45:18;4.80;;;1.85;;
25319;SDS011;13256;49.012;8.610;2022-07-10T06:47:51;4.32;;;1.42;;
25319;SDS011;13256;49.012;8.610;2022-07-10T06:50:29;7.32;;;1.70;;
25319;SDS011;13256;49.012;8.610;2022-07-10T06:53:01;5.75;;;1.67;;
25319;SDS011;13256;49.012;8.610;2022-07-10T06:55:29;7.57;;;1.98;;
25319;SDS011;13256;49.012;8.610;2022-07-10T06:57:57;3.53;;;1.45;;
25319;SDS011;13256;49.012;8.610;2022-07-10T07:00:24;5.07;;;1.60;;
25319;SDS011;13256;49.012;8.610;2022-07-10T07:02:55;14.85;;;2.30;;
25319;SDS011;13256;49.012;8.610;2022-07-10T07:05:22;4.80;;;1.77;;
25319;SDS011;13256;49.012;8.610;2022-07-10T07:07:49;6.93;;;1.50;;
25319;SDS011;13256;49.012;8.610;2022-07-10T07:10:19;5.32;;;1.70;;
25319;SDS011;13256;49.012;8.610;2022-07-10T07:12:48;7.32;;;1.70;;
25319;SDS011;13256;49.012;8.610;2022-07-10T07:15:16;6.45;;;1.77;;
25319;SDS011;13256;49.012;8.610;2022-07-10T07:17:43;3.85;;;1.30;;
25319;SDS011;13256;49.012;8.610;2022-07-10T07:20:30;4.82;;;1.85;;
25319;SDS011;13256;49.012;8.610;2022-07-10T07:23:23;4.90;;;1.50;;
25319;SDS011;13256;49.012;8.610;2022-07-10T07:25:52;3.92;;;1.70;;
25319;SDS011;13256;49.012;8.610;2022-07-10T07:28:19;5.03;;;1.50;;
25319;SDS011;13256;49.012;8.610;2022-07-10T07:30:49;4.32;;;1.38;;
25319;SDS011;13256;49.012;8.610;2022-07-10T07:33:22;4.68;;;1.30;;
25319;SDS011;13256;49.012;8.610;2022-07-10T07:35:49;4.15;;;1.52;;
25319;SDS011;13256;49.012;8.610;2022-07-10T07:38:18;4.15;;;1.88;;
25319;SDS011;13256;49.012;8.610;2022-07-10T07:40:45;3.85;;;1.42;;
25319;SDS011;13256;49.012;8.610;2022-07-10T07:43:14;5.43;;;1.58;;
25319;SDS011;13256;49.012;8.610;2022-07-10T07:45:41;6.18;;;1.50;;
25319;SDS011;13256;49.012;8.610;2022-07-10T07:48:12;5.95;;;1.48;;
25319;SDS011;13256;49.012;8.610;2022-07-10T07:50:39;5.63;;;1.80;;
25319;SDS011;13256;49.012;8.610;2022-07-10T07:53:08;6.65;;;1.50;;
25319;SDS011;13256;49.012;8.610;2022-07-10T07:55:36;5.45;;;1.60;;
25319;SDS011;13256;49.012;8.610;2022-07-10T07:58:05;8.20;;;2.00;;
25319;SDS011;13256;49.012;8.610;2022-07-10T08:00:40;6.35;;;1.45;;
25319;SDS011;13256;49.012;8.610;2022-07-10T08:03:10;5.85;;;2.22;;
25319;SDS011;13256;49.012;8.610;2022-07-10T08:05:37;2.63;;;1.45;;
25319;SDS011;13256;49.012;8.610;2022-07-10T08:08:06;7.55;;;1.63;;
25319;SDS011;13256;49.012;8.610;2022-07-10T08:10:34;5.07;;;1.60;;
25319;SDS011;13256;49.012;8.610;2022-07-10T08:13:12;3.55;;;1.50;;
25319;SDS011;13256;49.012;8.610;2022-07-10T08:15:40;3.30;;;1.17;;
25319;SDS011;13256;49.012;8.610;2022-07-10T08:18:06;4.72;;;1.42;;
25319;SDS011;13256;49.012;8.610;2022-07-10T08:20:33;7.90;;;2.05;;
25319;SDS011;13256;49.012;8.610;2022-07-10T08:23:05;12.93;;;2.58;;
25319;SDS011;13256;49.012;8.610;2022-07-10T08:25:32;4.47;;;1.38;;
25319;SDS011;13256;49.012;8.610;2022-07-10T08:28:02;5.05;;;1.40;;
25319;SDS011;13256;49.012;8.610;2022-07-10T08:30:31;2.30;;;1.10;;
25319;SDS011;13256;49.012;8.610;2022-07-10T08:33:00;6.45;;;1.25;;
25319;SDS011;13256;49.012;8.610;2022-07-10T08:41:29;5.30;;;1.40;;
25319;SDS011;13256;49.012;8.610;2022-07-10T08:43:59;6.00;;;1.20;;
25319;SDS011;13256;49.012;8.610;2022-07-10T08:46:50;3.58;;;1.35;;
25319;SDS011;13256;49.012;8.610;2022-07-10T08:49:20;5.13;;;1.40;;
25319;SDS011;13256;49.012;8.610;2022-07-10T08:54:31;3.67;;;1.35;;
25319;SDS011;13256;49.012;8.610;2022-07-10T08:57:00;3.00;;;1.23;;
25319;SDS011;13256;49.012;8.610;2022-07-10T08:59:29;6.05;;;1.38;;
25319;SDS011;13256;49.012;8.610;2022-07-10T09:01:58;4.85;;;1.23;;
25319;SDS011;13256;49.012;8.610;2022-07-10T09:04:28;4.78;;;1.17;;
25319;SDS011;13256;49.012;8.610;2022-07-10T09:06:55;3.53;;;0.98;;
25319;SDS011;13256;49.012;8.610;2022-07-10T09:09:25;9.15;;;1.30;;
25319;SDS011;13256;49.012;8.610;2022-07-10T09:11:56;3.92;;;1.30;;
25319;SDS011;13256;49.012;8.610;2022-07-10T09:14:26;3.50;;;1.13;;
25319;SDS011;13256;49.012;8.610;2022-07-10T09:17:01;5.45;;;1.25;;
25319;SDS011;13256;49.012;8.610;2022-07-10T09:19:33;4.00;;;1.20;;
25319;SDS011;13256;49.012;8.610;2022-07-10T09:22:05;7.10;;;1.30;;
25319;SDS011;13256;49.012;8.610;2022-07-10T09:24:55;6.45;;;1.20;;
25319;SDS011;13256;49.012;8.610;2022-07-10T09:27:25;5.03;;;1.10;;
25319;SDS011;13256;49.012;8.610;2022-07-10T09:29:52;4.60;;;0.90;;
25319;SDS011;13256;49.012;8.610;2022-07-10T09:32:24;4.03;;;1.25;;
25319;SDS011;13256;49.012;8.610;2022-07-10T09:34:56;5.60;;;1.05;;
25319;SDS011;13256;49.012;8.610;2022-07-10T09:37:47;4.15;;;1.08;;
25319;SDS011;13256;49.012;8.610;2022-07-10T09:40:14;6.05;;;1.15;;
25319;SDS011;13256;49.012;8.610;2022-07-10T09:42:43;6.80;;;1.10;;
25319;SDS011;13256;49.012;8.610;2022-07-10T09:53:05;7.72;;;1.13;;
25319;SDS011;13256;49.012;8.610;2022-07-10T09:55:36;6.53;;;1.15;;
25319;SDS011;13256;49.012;8.610;2022-07-10T09:58:18;6.90;;;1.02;;
25319;SDS011;13256;49.012;8.610;2022-07-10T10:00:52;3.45;;;1.00;;
25319;SDS011;13256;49.012;8.610;2022-07-10T10:03:25;4.90;;;0.93;;
25319;SDS011;13256;49.012;8.610;2022-07-10T10:05:54;2.80;;;0.70;;
25319;SDS011;13256;49.012;8.610;2022-07-10T10:11:23;2.45;;;1.05;;
25319;SDS011;13256;49.012;8.610;2022-07-10T10:13:55;1.73;;;0.70;;
25319;SDS011;13256;49.012;8.610;2022-07-10T10:16:28;3.00;;;0.82;;
25319;SDS011;13256;49.012;8.610;2022-07-10T10:19:03;4.97;;;0.88;;
25319;SDS011;13256;49.012;8.610;2022-07-10T10:21:48;5.00;;;1.35;;
25319;SDS011;13256;49.012;8.610;2022-07-10T10:24:15;5.75;;;1.27;;
25319;SDS011;13256;49.012;8.610;2022-07-10T10:26:43;2.90;;;1.23;;
25319;SDS011;13256;49.012;8.610;2022-07-10T10:29:11;3.15;;;0.80;;
25319;SDS011;13256;49.012;8.610;2022-07-10T10:31:41;3.10;;;0.80;;
25319;SDS011;13256;49.012;8.610;2022-07-10T10:34:09;2.15;;;0.98;;
25319;SDS011;13256;49.012;8.610;2022-07-10T10:39:24;1.92;;;0.60;;
25319;SDS011;13256;49.012;8.610;2022-07-10T10:41:55;2.40;;;0.60;;
25319;SDS011;13256;49.012;8.610;2022-07-10T10:44:23;5.22;;;1.00;;
25319;SDS011;13256;49.012;8.610;2022-07-10T10:49:26;4.15;;;1.10;;
25319;SDS011;13256;49.012;8.610;2022-07-10T10:52:16;2.22;;;0.85;;
25319;SDS011;13256;49.012;8.610;2022-07-10T10:57:39;6.13;;;1.20;;
25319;SDS011;13256;49.012;8.610;2022-07-10T11:03:22;2.83;;;0.70;;
25319;SDS011;13256;49.012;8.610;2022-07-10T11:06:38;2.38;;;0.88;;
25319;SDS011;13256;49.012;8.610;2022-07-10T11:12:16;2.40;;;0.77;;
25319;SDS011;13256;49.012;8.610;2022-07-10T11:14:46;1.58;;;0.63;;
25319;SDS011;13256;49.012;8.610;2022-07-10T11:17:25;2.17;;;0.50;;
25319;SDS011;13256;49.012;8.610;2022-07-10T11:19:55;4.88;;;0.70;;
25319;SDS011;13256;49.012;8.610;2022-07-10T11:22:37;5.40;;;0.80;;
25319;SDS011;13256;49.012;8.610;2022-07-10T11:30:42;3.22;;;0.70;;
25319;SDS011;13256;49.012;8.610;2022-07-10T11:33:13;3.95;;;0.90;;
25319;SDS011;13256;49.012;8.610;2022-07-10T11:35:44;2.90;;;0.80;;
25319;SDS011;13256;49.012;8.610;2022-07-10T11:41:12;3.42;;;0.70;;
25319;SDS011;13256;49.012;8.610;2022-07-10T11:43:47;1.98;;;0.65;;
25319;SDS011;13256;49.012;8.610;2022-07-10T11:46:21;6.45;;;1.00;;
25319;SDS011;13256;49.012;8.610;2022-07-10T11:48:50;2.97;;;1.00;;
25319;SDS011;13256;49.012;8.610;2022-07-10T11:51:30;4.55;;;1.02;;
25319;SDS011;13256;49.012;8.610;2022-07-10T11:54:04;6.03;;;1.20;;
25319;SDS011;13256;49.012;8.610;2022-07-10T11:56:38;2.42;;;0.70;;
25319;SDS011;13256;49.012;8.610;2022-07-10T11:59:10;3.95;;;0.73;;
25319;SDS011;13256;49.012;8.610;2022-07-10T12:01:44;2.92;;;0.65;;
25319;SDS011;13256;49.012;8.610;2022-07-10T12:04:17;4.07;;;0.65;;
25319;SDS011;13256;49.012;8.610;2022-07-10T12:06:47;4.88;;;1.23;;
25319;SDS011;13256;49.012;8.610;2022-07-10T12:09:16;3.42;;;0.98;;
25319;SDS011;13256;49.012;8.610;2022-07-10T12:12:00;3.83;;;0.90;;
25319;SDS011;13256;49.012;8.610;2022-07-10T12:14:32;4.30;;;0.70;;
25319;SDS011;13256;49.012;8.610;2022-07-10T12:17:03;2.58;;;0.60;;
25319;SDS011;13256;49.012;8.610;2022-07-10T12:19:45;5.28;;;1.00;;
25319;SDS011;13256;49.012;8.610;2022-07-10T12:22:12;2.63;;;0.73;;
25319;SDS011;13256;49.012;8.610;2022-07-10T12:24:45;6.35;;;0.68;;
25319;SDS011;13256;49.012;8.610;2022-07-10T12:30:07;2.15;;;0.65;;
25319;SDS011;13256;49.012;8.610;2022-07-10T12:32:38;3.20;;;1.00;;
25319;SDS011;13256;49.012;8.610;2022-07-10T12:35:06;4.93;;;0.65;;
25319;SDS011;13256;49.012;8.610;2022-07-10T12:37:59;3.47;;;0.63;;
25319;SDS011;13256;49.012;8.610;2022-07-10T12:43:39;2.13;;;0.70;;
25319;SDS011;13256;49.012;8.610;2022-07-10T12:48:38;5.47;;;0.85;;
25319;SDS011;13256;49.012;8.610;2022-07-10T12:51:26;6.03;;;1.17;;
25319;SDS011;13256;49.012;8.610;2022-07-10T12:54:36;2.70;;;0.73;;
25319;SDS011;13256;49.012;8.610;2022-07-10T12:57:06;5.32;;;0.82;;
25319;SDS011;13256;49.012;8.610;2022-07-10T12:59:39;3.80;;;0.63;;
25319;SDS011;13256;49.012;8.610;2022-07-10T13:02:15;4.40;;;1.00;;
25319;SDS011;13256;49.012;8.610;2022-07-10T13:04:53;1.38;;;0.50;;
25319;SDS011;13256;49.012;8.610;2022-07-10T13:10:03;4.07;;;0.80;;
25319;SDS011;13256;49.012;8.610;2022-07-10T13:13:01;3.53;;;0.70;;
25319;SDS011;13256;49.012;8.610;2022-07-10T13:15:28;1.77;;;0.47;;
25319;SDS011;13256;49.012;8.610;2022-07-10T13:18:01;4.78;;;0.90;;
25319;SDS011;13256;49.012;8.610;2022-07-10T13:20:28;4.43;;;0.95;;
25319;SDS011;13256;49.012;8.610;2022-07-10T13:22:56;5.60;;;1.02;;
25319;SDS011;13256;49.012;8.610;2022-07-10T13:25:23;3.78;;;1.00;;
25319;SDS011;13256;49.012;8.610;2022-07-10T13:27:51;3.85;;;0.90;;
25319;SDS011;13256;49.012;8.610;2022-07-10T13:30:20;3.58;;;1.00;;
25319;SDS011;13256;49.012;8.610;2022-07-10T13:32:51;4.15;;;1.10;;
25319;SDS011;13256;49.012;8.610;2022-07-10T13:35:17;3.10;;;0.70;;
25319;SDS011;13256;49.012;8.610;2022-07-10T13:37:44;3.92;;;0.90;;
25319;SDS011;13256;49.012;8.610;2022-07-10T13:40:14;3.50;;;1.10;;
25319;SDS011;13256;49.012;8.610;2022-07-10T13:42:47;2.63;;;0.98;;
25319;SDS011;13256;49.012;8.610;2022-07-10T13:45:15;4.93;;;1.10;;
25319;SDS011;13256;49.012;8.610;2022-07-10T13:47:44;8.90;;;1.10;;
25319;SDS011;13256;49.012;8.610;2022-07-10T13:50:13;4.05;;;0.93;;
25319;SDS011;13256;49.012;8.610;2022-07-10T13:52:41;5.22;;;0.90;;
25319;SDS011;13256;49.012;8.610;2022-07-10T13:55:07;2.38;;;1.00;;
25319;SDS011;13256;49.012;8.610;2022-07-10T13:57:34;4.32;;;0.77;;
25319;SDS011;13256;49.012;8.610;2022-07-10T14:00:02;5.47;;;1.05;;
25319;SDS011;13256;49.012;8.610;2022-07-10T14:02:39;3.28;;;1.00;;
25319;SDS011;13256;49.012;8.610;2022-07-10T14:05:06;1.88;;;0.63;;
25319;SDS011;13256;49.012;8.610;2022-07-10T14:07:40;3.70;;;0.90;;
25319;SDS011;13256;49.012;8.610;2022-07-10T14:10:07;4.93;;;1.42;;
25319;SDS011;13256;49.012;8.610;2022-07-10T14:12:35;3.85;;;1.05;;
25319;SDS011;13256;49.012;8.610;2022-07-10T14:15:01;3.10;;;1.02;;
25319;SDS011;13256;49.012;8.610;2022-07-10T14:17:28;5.28;;;0.80;;
25319;SDS011;13256;49.012;8.610;2022-07-10T14:19:56;3.53;;;0.98;;
25319;SDS011;13256;49.012;8.610;2022-07-10T14:22:23;2.45;;;1.00;;
25319;SDS011;13256;49.012;8.610;2022-07-10T14:24:50;5.72;;;0.90;;
25319;SDS011;13256;49.012;8.610;2022-07-10T14:27:20;4.45;;;1.08;;
25319;SDS011;13256;49.012;8.610;2022-07-10T14:29:50;6.32;;;0.93;;
25319;SDS011;13256;49.012;8.610;2022-07-10T14:32:18;7.22;;;0.93;;
25319;SDS011;13256;49.012;8.610;2022-07-10T14:34:47;4.28;;;0.95;;
25319;SDS011;13256;49.012;8.610;2022-07-10T14:37:14;3.13;;;1.02;;
25319;SDS011;13256;49.012;8.610;2022-07-10T14:39:40;3.80;;;0.98;;
25319;SDS011;13256;49.012;8.610;2022-07-10T14:42:10;6.05;;;1.00;;
25319;SDS011;13256;49.012;8.610;2022-07-10T14:44:39;3.15;;;1.02;;
25319;SDS011;13256;49.012;8.610;2022-07-10T14:47:09;3.15;;;0.85;;
25319;SDS011;13256;49.012;8.610;2022-07-10T14:49:36;1.45;;;0.70;;
25319;SDS011;13256;49.012;8.610;2022-07-10T14:52:03;4.80;;;0.80;;
25319;SDS011;13256;49.012;8.610;2022-07-10T14:54:30;3.95;;;0.80;;
25319;SDS011;13256;49.012;8.610;2022-07-10T14:57:00;3.83;;;1.05;;
25319;SDS011;13256;49.012;8.610;2022-07-10T14:59:29;4.20;;;1.00;;
25319;SDS011;13256;49.012;8.610;2022-07-10T15:01:59;3.72;;;0.90;;
25319;SDS011;13256;49.012;8.610;2022-07-10T15:04:28;5.97;;;0.80;;
25319;SDS011;13256;49.012;8.610;2022-07-10T15:06:55;4.00;;;1.00;;
25319;SDS011;13256;49.012;8.610;2022-07-10T15:09:24;6.10;;;1.05;;
25319;SDS011;13256;49.012;8.610;2022-07-10T15:11:54;2.25;;;0.60;;
25319;SDS011;13256;49.012;8.610;2022-07-10T15:14:22;7.60;;;1.33;;
25319;SDS011;13256;49.012;8.610;2022-07-10T15:16:54;2.30;;;0.90;;
25319;SDS011;13256;49.012;8.610;2022-07-10T15:19:21;5.32;;;0.93;;
25319;SDS011;13256;49.012;8.610;2022-07-10T15:21:48;4.32;;;1.08;;
25319;SDS011;13256;49.012;8.610;2022-07-10T15:24:17;1.25;;;0.80;;
25319;SDS011;13256;49.012;8.610;2022-07-10T15:26:45;3.15;;;0.93;;
25319;SDS011;13256;49.012;8.610;2022-07-10T15:29:13;3.85;;;1.00;;
25319;SDS011;13256;49.012;8.610;2022-07-10T15:31:43;3.78;;;0.90;;
25319;SDS011;13256;49.012;8.610;2022-07-10T15:34:16;3.83;;;0.85;;
25319;SDS011;13256;49.012;8.610;2022-07-10T15:36:43;4.28;;;1.17;;
25319;SDS011;13256;49.012;8.610;2022-07-10T15:39:12;2.47;;;0.98;;
25319;SDS011;13256;49.012;8.610;2022-07-10T15:41:45;4.75;;;0.80;;
25319;SDS011;13256;49.012;8.610;2022-07-10T15:44:12;2.70;;;0.80;;
25319;SDS011;13256;49.012;8.610;2022-07-10T15:46:39;3.75;;;1.08;;
25319;SDS011;13256;49.012;8.610;2022-07-10T15:49:10;2.95;;;0.85;;
25319;SDS011;13256;49.012;8.610;2022-07-10T15:51:37;3.22;;;0.95;;
25319;SDS011;13256;49.012;8.610;2022-07-10T15:54:04;2.67;;;1.10;;
25319;SDS011;13256;49.012;8.610;2022-07-10T15:56:31;2.75;;;0.90;;
25319;SDS011;13256;49.012;8.610;2022-07-10T15:59:04;2.78;;;1.10;;
25319;SDS011;13256;49.012;8.610;2022-07-10T16:01:31;5.63;;;0.98;;
25319;SDS011;13256;49.012;8.610;2022-07-10T16:04:04;4.70;;;1.17;;
25319;SDS011;13256;49.012;8.610;2022-07-10T16:06:32;6.63;;;0.80;;
25319;SDS011;13256;49.012;8.610;2022-07-10T16:08:59;3.28;;;0.98;;
25319;SDS011;13256;49.012;8.610;2022-07-10T16:11:28;5.68;;;1.00;;
25319;SDS011;13256;49.012;8.610;2022-07-10T16:22:46;2.03;;;0.80;;
25319;SDS011;13256;49.012;8.610;2022-07-10T16:25:16;3.55;;;0.95;;
25319;SDS011;13256;49.012;8.610;2022-07-10T16:28:01;5.38;;;1.05;;
25319;SDS011;13256;49.012;8.610;2022-07-10T16:30:32;3.67;;;0.90;;
25319;SDS011;13256;49.012;8.610;2022-07-10T16:33:00;3.85;;;0.73;;